OIAG  Aghajari Airport

Add Bookmark

Iran

Status
Operational
Latitude Longitude
30° 44' 39" N 49° 40' 37" E
30.744400 49.677200
Local (DST + 5) UTC (GMT + 4)
Oct 30, 2014 07:22 Oct 30, 2014 15:52
Sunrise-Sunset Local UTC
Begin Civil Twilight 05:58 02:28
Sunrise 06:23 02:53
Sunset 05:26 13:56
End Civil Twilight 05:51 14:21

Current Weather

METAR Observed VFR
OIAG 301400Z 35012KT 9999 BKN040 29/07 Q1012 Thu, Oct 30, 2014 @ 14:00 UTC
(1 Hour, 52 Minutes ago)
Visual Flight Rules
Wind Visibility Clouds Conditions
350° at 12 knots (22 kph) 10 km or more
  • Broken at 4,000' AGL
  • No significant weather
Temperatures Readings Precipitation
Current Temp 29°C (84°F)
Dewpoint 7°C (45°F)
Humidity 25%
Altimeter 29.88"Hg
Sea Level Pressure 1012mb
Field Elevation 95.14'
None Recorded

Additional weather within a 92.6km radius of OIAG

Map ICAO Location
OIAM 54.4km W (248°)

24 Hour Weather History

Loading
-

24 Hour Weather Graphs

Loading
-

CheckWX.com is intended as a tool to help pilots better visualize weather data. It is not intended as a substitute for an official weather briefing obtained from a Flight Service Station. CheckWX.com does not meet the FAA requirements for an official pre-flight weather briefing. Therefore, it's important that pilots still call and obtain an official FSS pre-flight weather briefing.